Time;durP1;ratioP1;P1;durP2;ratioP2;P2;SDS_P1;SDS_P2;PMS_P1;PMS_P2;Temp;Humidity;BMP_temperature;BMP_pressure;BME280_temperature;BME280_humidity;BME280_pressure;Samples;Min_cycle;Max_cycle;Signal;HPM_P1;HPM_P2
2022/05/04 00:00:44;;;;;;;11.90;4.82;;;;;;;6.73;100.00;100418.59;4999415;28;20032;-78
2022/05/04 00:03:09;;;;;;;13.40;5.60;;;;;;;6.65;100.00;100424.00;5017430;28;20104;-78
2022/05/04 00:05:35;;;;;;;8.30;4.70;;;;;;;6.60;100.00;100424.03;4999315;28;20121;-78
2022/05/04 00:08:00;;;;;;;16.23;5.70;;;;;;;6.78;100.00;100428.25;5016861;28;20132;-78
2022/05/04 00:10:25;;;;;;;12.40;5.20;;;;;;;6.73;100.00;100427.44;5017546;28;20053;-78
2022/05/04 00:12:51;;;;;;;13.57;5.10;;;;;;;6.67;100.00;100419.56;5001659;28;20022;-78
2022/05/04 00:15:16;;;;;;;14.93;4.75;;;;;;;6.54;100.00;100425.00;5020747;28;20033;-76
2022/05/04 00:17:42;;;;;;;14.82;6.07;;;;;;;6.50;100.00;100436.53;5021563;28;20018;-77
2022/05/04 00:20:08;;;;;;;15.80;5.72;;;;;;;6.48;100.00;100427.72;5020639;28;20029;-76
2022/05/04 00:22:33;;;;;;;18.48;4.90;;;;;;;6.43;100.00;100425.13;5019724;28;20026;-77
2022/05/04 00:24:59;;;;;;;17.83;5.85;;;;;;;6.56;100.00;100425.88;5018895;28;20026;-78
2022/05/04 00:27:24;;;;;;;16.88;5.35;;;;;;;6.61;100.00;100424.91;5000791;28;20022;-78
2022/05/04 00:29:50;;;;;;;14.07;5.22;;;;;;;6.69;100.00;100423.06;5000708;28;20483;-78
2022/05/04 00:32:17;;;;;;;14.35;5.28;;;;;;;6.47;100.00;100423.28;5018233;28;20021;-78
2022/05/04 00:34:43;;;;;;;16.63;5.40;;;;;;;6.46;100.00;100426.84;5017810;28;20505;-78
2022/05/04 00:37:08;;;;;;;11.85;5.97;;;;;;;6.52;100.00;100425.91;5000430;28;20018;-79
2022/05/04 00:39:34;;;;;;;14.05;5.07;;;;;;;6.52;100.00;100421.47;5000800;28;20032;-78
2022/05/04 00:42:10;;;;;;;15.10;5.10;;;;;;;6.52;100.00;100420.63;5018384;28;20103;-78
2022/05/04 00:44:36;;;;;;;15.32;5.43;;;;;;;6.29;100.00;100419.94;5017646;28;20101;-78
2022/05/04 00:47:01;;;;;;;10.88;5.10;;;;;;;6.17;100.00;100422.72;5017300;28;20424;-78
2022/05/04 00:49:27;;;;;;;10.65;5.30;;;;;;;6.28;100.00;100427.94;5000176;28;20510;-76
2022/05/04 00:51:52;;;;;;;15.40;5.30;;;;;;;6.16;100.00;100434.22;5020250;28;20100;-78
2022/05/04 00:54:17;;;;;;;11.18;4.97;;;;;;;6.00;100.00;100437.88;5083877;22;20528;-83
2022/05/04 00:56:44;;;;;;;15.70;5.10;;;;;;;6.14;100.00;100427.16;5054800;28;20024;-84
2022/05/04 00:59:10;;;;;;;13.00;4.55;;;;;;;6.19;100.00;100428.88;5038080;28;20052;-84
2022/05/04 01:01:35;;;;;;;14.70;5.43;;;;;;;6.28;100.00;100428.81;5037995;28;20052;-84
2022/05/04 01:04:01;;;;;;;16.80;5.75;;;;;;;6.28;100.00;100428.81;5036581;28;20063;-84
2022/05/04 01:06:26;;;;;;;12.35;5.00;;;;;;;6.30;100.00;100431.44;5036997;28;20033;-83
2022/05/04 01:08:54;;;;;;;10.60;5.00;;;;;;;6.34;100.00;100423.44;5036762;28;20111;-83
2022/05/04 01:11:20;;;;;;;14.50;4.78;;;;;;;6.28;100.00;100423.50;5036717;28;20028;-84
2022/05/04 01:14:03;;;;;;;11.63;4.72;;;;;;;6.31;100.00;100422.59;5036269;28;20029;-84
2022/05/04 01:16:29;;;;;;;11.95;4.60;;;;;;;6.27;100.00;100424.38;5036458;28;20032;-83
2022/05/04 01:18:55;;;;;;;13.73;4.47;;;;;;;6.29;100.00;100427.91;5036092;28;20557;-84
2022/05/04 01:21:21;;;;;;;13.57;5.00;;;;;;;6.24;100.00;100427.94;5054361;28;20033;-83
2022/05/04 01:23:46;;;;;;;13.90;4.90;;;;;;;6.25;100.00;100424.41;5054266;28;20083;-84
2022/05/04 01:26:16;;;;;;;11.18;4.93;;;;;;;6.26;100.00;100430.59;5036178;28;20016;-85
2022/05/04 01:28:42;;;;;;;12.00;5.60;;;;;;;6.10;100.00;100420.13;5036198;28;20074;-84
2022/05/04 01:31:07;;;;;;;13.60;5.20;;;;;;;6.01;100.00;100420.16;5035954;28;20490;-83
2022/05/04 01:33:33;;;;;;;14.07;4.88;;;;;;;6.08;100.00;100429.00;5035995;28;20029;-84
2022/05/04 01:35:58;;;;;;;11.68;5.13;;;;;;;6.03;100.00;100429.00;5053766;28;20060;-83
2022/05/04 01:38:23;;;;;;;12.60;5.50;;;;;;;5.96;100.00;100416.69;5053791;28;20024;-83
2022/05/04 01:40:49;;;;;;;16.42;4.93;;;;;;;6.05;100.00;100419.28;5053677;28;20551;-83
2022/05/04 01:43:14;;;;;;;11.18;5.45;;;;;;;6.06;100.00;100418.34;5035904;28;20031;-83
2022/05/04 01:45:39;;;;;;;14.48;5.40;;;;;;;5.98;100.00;100426.38;5035732;28;20033;-84
2022/05/04 01:48:05;;;;;;;12.77;4.88;;;;;;;5.95;100.00;100420.25;5054842;28;20165;-83
2022/05/04 01:50:30;;;;;;;15.45;5.13;;;;;;;5.99;100.00;100421.97;5053740;28;20027;-83
2022/05/04 01:52:55;;;;;;;15.23;5.25;;;;;;;6.06;100.00;100421.00;5035563;28;20036;-83
2022/05/04 01:55:22;;;;;;;11.68;5.00;;;;;;;6.00;100.00;100414.00;5035618;28;20029;-84
2022/05/04 01:57:47;;;;;;;13.25;5.32;;;;;;;5.95;100.00;100417.59;5053606;28;20079;-83
2022/05/04 02:00:13;;;;;;;17.00;5.88;;;;;;;5.95;100.00;100407.88;5053540;28;20021;-84
2022/05/04 02:02:38;;;;;;;14.27;5.15;;;;;;;6.00;100.00;100407.81;5053629;28;20021;-83
2022/05/04 02:05:05;;;;;;;14.27;5.38;;;;;;;5.96;100.00;100414.91;5035509;28;20056;-84
2022/05/04 02:07:33;;;;;;;15.43;6.07;;;;;;;5.98;100.00;100406.97;5035466;28;20029;-82
2022/05/04 02:09:58;;;;;;;15.68;5.78;;;;;;;5.91;100.00;100414.97;5036029;28;20021;-83
2022/05/04 02:12:27;;;;;;;17.67;5.95;;;;;;;5.90;100.00;100410.53;5035520;28;20023;-83
2022/05/04 02:14:53;;;;;;;18.63;5.55;;;;;;;5.87;100.00;100409.72;5035599;28;20078;-83
2022/05/04 02:17:18;;;;;;;18.27;5.70;;;;;;;5.89;100.00;100416.75;5035520;28;20032;-83
2022/05/04 02:19:44;;;;;;;16.63;5.90;;;;;;;5.85;100.00;100425.59;5053305;28;20411;-83
2022/05/04 02:22:09;;;;;;;16.52;5.20;;;;;;;5.85;100.00;100415.00;5053288;28;20478;-82
2022/05/04 02:24:34;;;;;;;16.48;5.93;;;;;;;5.82;100.00;100420.34;5036117;28;20021;-81
2022/05/04 02:27:00;;;;;;;16.45;5.30;;;;;;;5.79;100.00;100409.78;5053677;28;20056;-83
2022/05/04 02:29:25;;;;;;;15.02;6.00;;;;;;;5.78;100.00;100400.03;5036249;28;20017;-83
2022/05/04 02:31:50;;;;;;;17.00;5.72;;;;;;;5.77;100.00;100411.56;5057556;28;20107;-83
2022/05/04 02:34:15;;;;;;;15.05;4.85;;;;;;;5.77;100.00;100400.97;5039741;28;20052;-84
2022/05/04 02:39:25;;;;;;;15.45;5.40;;;;;;;5.67;100.00;100405.47;5057518;28;20174;-82
2022/05/04 02:41:52;;;;;;;15.90;5.22;;;;;;;5.67;100.00;100416.91;5039409;28;20401;-83
2022/05/04 02:44:18;;;;;;;15.52;5.80;;;;;;;5.63;100.00;100414.28;5039598;28;20044;-83
2022/05/04 02:46:43;;;;;;;14.57;4.90;;;;;;;5.63;100.00;100409.88;5057240;28;20393;-83
2022/05/04 02:49:09;;;;;;;20.38;5.65;;;;;;;5.58;100.00;100411.69;5039253;28;20013;-83
2022/05/04 02:51:34;;;;;;;14.55;5.25;;;;;;;5.60;100.00;100407.25;5039646;28;20028;-82
2022/05/04 02:53:59;;;;;;;13.77;5.28;;;;;;;5.55;100.00;100414.34;5038904;28;20056;-82
2022/05/04 02:56:25;;;;;;;15.00;4.82;;;;;;;5.55;100.00;100411.69;5056954;28;20516;-83
2022/05/04 02:58:53;;;;;;;15.63;5.00;;;;;;;5.49;100.00;100412.63;5040234;28;20074;-82
2022/05/04 03:04:06;;;;;;;13.15;4.97;;;;;;;5.40;100.00;100408.28;5057060;28;20101;-83
2022/05/04 03:06:32;;;;;;;13.07;4.57;;;;;;;5.41;100.00;100402.06;5039180;28;20032;-84
2022/05/04 03:08:58;;;;;;;20.30;5.05;;;;;;;5.35;100.00;100402.13;5038764;28;20021;-83
2022/05/04 03:14:07;;;;;;;;;;;;;;;5.25;100.00;100398.66;5057473;28;20116;-83
2022/05/04 03:16:36;;;;;;;13.18;4.60;;;;;;;5.28;100.00;100393.38;5039402;28;20345;-82
2022/05/04 03:19:05;;;;;;;15.25;4.80;;;;;;;5.27;100.00;100385.41;5038653;28;20119;-82
2022/05/04 03:21:31;;;;;;;20.02;6.07;;;;;;;5.22;100.00;100388.09;5056517;28;20187;-83
2022/05/04 03:23:57;;;;;;;15.27;5.80;;;;;;;5.22;100.00;100381.03;5038518;28;20025;-83
2022/05/04 03:26:24;;;;;;;14.68;5.47;;;;;;;5.19;100.00;100386.34;5056644;28;20056;-83
2022/05/04 03:28:49;;;;;;;18.98;6.03;;;;;;;5.19;100.00;100388.09;5038562;28;20021;-84
2022/05/04 03:31:14;;;;;;;13.70;5.55;;;;;;;5.18;100.00;100384.56;5038493;28;20032;-83
2022/05/04 03:33:40;;;;;;;15.52;5.53;;;;;;;5.16;100.00;100380.19;5038284;28;20432;-82
2022/05/04 03:36:06;;;;;;;12.20;5.82;;;;;;;5.11;100.00;100388.16;5057073;28;20020;-83
2022/05/04 03:38:31;;;;;;;14.32;5.40;;;;;;;5.08;100.00;100381.09;5038107;28;20020;-82
2022/05/04 03:40:56;;;;;;;15.15;6.15;;;;;;;4.91;100.00;100384.72;5036750;28;20032;-83
2022/05/04 03:43:22;;;;;;;19.10;8.52;;;;;;;4.78;100.00;100378.63;5038023;28;20021;-82
2022/05/04 03:45:47;;;;;;;18.35;5.72;;;;;;;4.69;100.00;100383.97;5038142;28;20098;-83
2022/05/04 03:48:12;;;;;;;19.05;5.95;;;;;;;4.58;100.00;100378.69;5038237;28;20029;-84
2022/05/04 03:50:38;;;;;;;14.90;5.57;;;;;;;4.50;100.00;100373.44;5056130;28;20021;-85
2022/05/04 03:53:03;;;;;;;15.35;5.72;;;;;;;4.55;100.00;100376.94;5037811;28;20448;-85
2022/05/04 03:55:29;;;;;;;11.10;4.97;;;;;;;4.61;100.00;100381.34;5055998;28;20024;-84
2022/05/04 03:57:54;;;;;;;12.88;4.90;;;;;;;4.34;100.00;100378.78;5055955;28;20096;-85
2022/05/04 04:00:20;;;;;;;13.45;5.07;;;;;;;4.16;100.00;100377.06;5037748;28;20025;-84
2022/05/04 04:02:49;;;;;;;13.95;5.50;;;;;;;4.30;100.00;100376.16;5038526;28;20120;-85
2022/05/04 04:05:15;;;;;;;11.82;5.05;;;;;;;4.26;100.00;100380.56;5037773;28;20024;-85
2022/05/04 04:07:40;;;;;;;16.50;5.88;;;;;;;4.21;100.00;100380.56;5037666;28;20020;-84
2022/05/04 04:10:06;;;;;;;14.95;5.80;;;;;;;4.39;100.00;100370.81;5037997;28;20075;-85
2022/05/04 04:12:35;;;;;;;16.30;6.45;;;;;;;4.48;100.00;100375.22;5038590;28;20029;-84
2022/05/04 04:15:00;;;;;;;18.13;7.30;;;;;;;4.42;100.00;100375.22;5037929;28;20483;-85
2022/05/04 04:17:25;;;;;;;20.38;6.88;;;;;;;4.31;100.00;100377.88;5055487;28;20559;-83
2022/05/04 04:21:50;;;;;;;14.50;6.90;;;;;;;4.18;100.00;100382.31;5055520;28;20112;-84
2022/05/04 04:22:36;;;;;;;16.05;7.00;;;;;;;4.26;100.00;100385.84;5055132;28;20029;-83
2022/05/04 04:25:02;;;;;;;15.70;6.72;;;;;;;4.30;100.00;100387.59;5055538;28;20029;-84
2022/05/04 04:27:35;;;;;;;21.92;7.80;;;;;;;4.18;100.00;100379.69;5037475;28;20518;-85
2022/05/04 04:30:00;;;;;;;18.63;6.95;;;;;;;4.11;100.00;100381.47;5037270;28;20021;-85
2022/05/04 04:32:26;;;;;;;17.73;7.13;;;;;;;4.08;100.00;100382.34;5055175;28;20385;-85
2022/05/04 04:34:51;;;;;;;23.52;8.40;;;;;;;4.05;100.00;100392.03;5055307;28;20024;-85
2022/05/04 04:37:17;;;;;;;20.02;8.20;;;;;;;4.10;100.00;100379.69;5054993;28;20104;-84
2022/05/04 04:39:42;;;;;;;19.42;8.38;;;;;;;4.15;100.00;100385.00;5054961;28;20021;-84
2022/05/04 04:42:07;;;;;;;20.10;8.25;;;;;;;4.19;100.00;100384.09;5055000;28;20033;-84
2022/05/04 04:44:33;;;;;;;19.30;8.40;;;;;;;4.30;100.00;100382.31;5037097;28;20020;-84
2022/05/04 04:46:58;;;;;;;22.15;8.85;;;;;;;4.36;100.00;100387.56;5055010;28;20029;-84
2022/05/04 04:49:25;;;;;;;22.27;8.85;;;;;;;4.42;100.00;100381.41;5055355;28;20025;-84
2022/05/04 04:51:50;;;;;;;18.67;8.80;;;;;;;4.35;100.00;100390.25;5054639;28;20017;-84
2022/05/04 04:54:16;;;;;;;18.05;8.55;;;;;;;4.19;100.00;100398.19;5054586;28;20078;-85
2022/05/04 04:56:41;;;;;;;18.88;8.68;;;;;;;4.18;100.00;100393.78;5036816;28;20025;-85
2022/05/04 04:59:06;;;;;;;22.95;9.65;;;;;;;4.12;100.00;100394.66;5037602;28;20071;-84
2022/05/04 05:01:31;;;;;;;25.60;9.60;;;;;;;4.15;100.00;100396.41;5036814;28;20017;-83
2022/05/04 05:03:57;;;;;;;23.33;9.77;;;;;;;4.17;100.00;100391.16;5057472;28;20370;-83
2022/05/04 05:06:24;;;;;;;20.05;9.55;;;;;;;4.29;100.00;100396.41;5055203;28;20021;-83
2022/05/04 05:08:49;;;;;;;20.75;9.77;;;;;;;4.31;100.00;100393.75;5038053;28;20032;-82
2022/05/04 05:11:14;;;;;;;27.45;10.52;;;;;;;4.41;100.00;100389.31;5054908;28;20025;-84
2022/05/04 05:17:02;;;;;;;22.58;9.23;;;;;;;4.52;100.00;100398.09;5058879;28;20103;-84
2022/05/04 05:19:27;;;;;;;19.80;8.75;;;;;;;4.66;100.00;100394.53;5036519;28;20025;-84
2022/05/04 05:21:52;;;;;;;19.42;9.05;;;;;;;4.79;100.00;100393.59;5036328;28;20028;-84
2022/05/04 05:24:18;;;;;;;20.85;8.57;;;;;;;4.90;100.00;100398.84;5054416;28;20462;-84
2022/05/04 05:26:43;;;;;;;21.67;9.20;;;;;;;4.99;100.00;100400.56;5055412;28;20050;-84
2022/05/04 05:29:08;;;;;;;20.80;9.38;;;;;;;5.08;100.00;100396.09;5036530;28;20465;-85
2022/05/04 05:31:34;;;;;;;17.13;8.18;;;;;;;5.15;100.00;100397.84;5053926;28;20032;-84
2022/05/04 05:33:59;;;;;;;17.63;8.35;;;;;;;5.14;100.00;100394.31;5035962;28;20025;-84
2022/05/04 05:36:24;;;;;;;18.42;8.50;;;;;;;5.30;100.00;100388.03;5054331;28;20028;-83
2022/05/04 05:38:49;;;;;;;20.77;7.97;;;;;;;5.37;100.00;100387.09;5036208;28;20116;-85
2022/05/04 05:41:15;;;;;;;17.52;7.57;;;;;;;5.36;100.00;100391.53;5035835;28;20032;-84
2022/05/04 05:43:40;;;;;;;20.40;7.25;;;;;;;5.48;100.00;100394.97;5035844;28;20062;-85
2022/05/04 05:46:05;;;;;;;23.05;7.07;;;;;;;5.53;100.00;100398.47;5035834;28;20028;-84
2022/05/04 05:48:30;;;;;;;17.02;6.88;;;;;;;5.61;100.00;100405.50;5054415;28;20052;-84
2022/05/04 05:50:56;;;;;;;23.63;6.65;;;;;;;5.64;100.00;100406.34;5036012;28;20024;-85
2022/05/04 05:53:22;;;;;;;16.65;6.60;;;;;;;5.51;100.00;100409.97;5053660;28;20509;-85
2022/05/04 05:55:49;;;;;;;12.45;5.15;;;;;;;5.60;100.00;100409.91;5036702;28;20021;-85
2022/05/04 05:58:14;;;;;;;17.48;6.03;;;;;;;5.55;100.00;100414.34;5035956;28;20021;-85
2022/05/04 06:00:39;;;;;;;13.65;5.38;;;;;;;5.62;100.00;100416.06;5035586;28;20021;-86
2022/05/04 06:03:04;;;;;;;20.30;6.40;;;;;;;5.67;100.00;100408.97;5035702;28;20493;-85
2022/05/04 06:05:30;;;;;;;13.90;5.63;;;;;;;5.71;100.00;100412.47;5035217;28;20027;-85
2022/05/04 06:07:55;;;;;;;12.63;5.70;;;;;;;5.79;100.00;100410.66;5035522;28;20029;-85
2022/05/04 06:10:21;;;;;;;16.98;6.10;;;;;;;5.80;100.00;100411.50;5053621;28;20032;-85
2022/05/04 06:12:46;;;;;;;20.58;6.65;;;;;;;5.82;100.00;100421.19;5035414;28;20032;-84
2022/05/04 06:15:12;;;;;;;15.65;5.30;;;;;;;5.89;100.00;100410.56;5035518;28;20397;-85
2022/05/04 06:17:38;;;;;;;19.30;6.13;;;;;;;5.90;100.00;100412.34;5035811;28;20025;-84
2022/05/04 06:20:05;;;;;;;21.02;6.03;;;;;;;5.93;100.00;100402.56;5035696;28;20425;-85
2022/05/04 06:22:30;;;;;;;15.15;5.38;;;;;;;5.99;100.00;100406.06;5035424;28;20025;-87
2022/05/04 06:24:56;;;;;;;16.23;5.10;;;;;;;6.03;100.00;100402.50;5035696;28;20017;-85
2022/05/04 06:27:21;;;;;;;17.85;5.47;;;;;;;6.22;100.00;100407.63;5035654;28;20086;-84
2022/05/04 06:35:14;;;;;;;;;;;;;;;6.42;100.00;100409.19;5054249;28;20405;-85
2022/05/04 06:37:39;;;;;;;86.50;10.30;;;;;;;6.54;100.00;100409.09;5053417;28;20357;-84
2022/05/04 06:40:06;;;;;;;13.70;4.80;;;;;;;6.62;100.00;100405.47;5035136;28;20359;-83
2022/05/04 06:42:32;;;;;;;13.05;5.00;;;;;;;6.65;100.00;100405.44;5035304;28;20127;-86
2022/05/04 06:44:58;;;;;;;16.42;4.75;;;;;;;6.78;100.00;100411.44;5035335;28;20496;-84
2022/05/04 06:47:23;;;;;;;17.33;5.40;;;;;;;6.80;100.00;100404.38;5053509;28;20029;-84
2022/05/04 06:49:48;;;;;;;46.53;7.53;;;;;;;6.88;100.00;100410.44;5035453;28;20024;-84
2022/05/04 06:52:14;;;;;;;22.83;5.88;;;;;;;6.92;100.00;100408.63;5035687;28;20363;-85
2022/05/04 06:54:39;;;;;;;134.10;11.55;;;;;;;7.04;100.00;100411.13;5071024;22;20036;-86
2022/05/04 06:57:05;;;;;;;51.42;7.07;;;;;;;7.19;100.00;100410.94;5072497;28;20024;-87
2022/05/04 06:59:30;;;;;;;18.92;4.72;;;;;;;7.19;100.00;100408.28;5072216;28;20056;-87
2022/05/04 07:01:56;;;;;;;81.60;9.20;;;;;;;7.35;100.00;100414.25;5054245;28;20028;-89
2022/05/04 07:04:21;;;;;;;15.57;4.55;;;;;;;7.46;100.00;100412.31;5072757;28;20036;-87
2022/05/04 07:06:46;;;;;;;13.65;4.07;;;;;;;7.59;100.00;100417.44;5072667;28;20546;-86
2022/05/04 07:09:12;;;;;;;15.10;5.13;;;;;;;7.70;100.00;100412.84;5072233;28;20377;-86
2022/05/04 07:11:37;;;;;;;16.55;4.15;;;;;;;7.84;100.00;100425.00;5054422;28;20022;-86
2022/05/04 07:14:02;;;;;;;15.55;4.18;;;;;;;7.97;100.00;100422.16;5072348;28;20028;-86
2022/05/04 07:16:28;;;;;;;14.43;3.90;;;;;;;8.11;100.00;100414.81;5075273;28;20024;-85
2022/05/04 07:18:53;;;;;;;12.07;4.10;;;;;;;8.20;97.44;100421.75;5076161;28;20111;-83
2022/05/04 07:21:18;;;;;;;12.40;4.13;;;;;;;8.34;100.00;100425.94;5077165;28;20020;-83
2022/05/04 07:23:44;;;;;;;16.85;3.75;;;;;;;8.37;99.80;100423.22;5058771;28;20023;-83
2022/05/04 07:26:09;;;;;;;13.13;4.03;;;;;;;8.46;100.00;100419.50;5077279;28;20029;-82
2022/05/04 07:28:34;;;;;;;11.57;3.92;;;;;;;8.58;100.00;100421.06;5077492;28;20024;-83
2022/05/04 07:30:59;;;;;;;10.40;3.53;;;;;;;8.63;96.21;100423.69;5077276;28;20103;-83
2022/05/04 07:33:25;;;;;;;12.45;3.67;;;;;;;8.59;93.78;100418.41;5076386;28;20334;-83
2022/05/04 07:35:50;;;;;;;10.98;3.75;;;;;;;8.96;95.42;100415.91;5076202;28;20081;-83
2022/05/04 07:38:16;;;;;;;16.00;4.20;;;;;;;9.21;95.86;100426.00;5059446;28;20107;-82
2022/05/04 07:43:25;;;;;;;;;;;;;;;9.39;93.54;100411.41;5077490;28;20150;-82
2022/05/04 07:45:51;;;;;;;12.25;4.60;;;;;;;9.30;94.14;100418.72;5058266;28;20349;-83
2022/05/04 07:48:16;;;;;;;14.18;3.85;;;;;;;9.45;93.60;100406.84;5075671;28;20035;-82
2022/05/04 07:50:41;;;;;;;15.48;4.03;;;;;;;9.61;93.18;100408.22;5057245;28;20512;-83
2022/05/04 07:53:07;;;;;;;13.50;3.30;;;;;;;9.45;89.18;100405.06;5075790;28;20037;-83
2022/05/04 07:55:33;;;;;;;11.68;4.18;;;;;;;9.53;90.61;100414.66;5075842;28;20111;-83
2022/05/04 07:57:59;;;;;;;13.65;4.20;;;;;;;9.41;88.06;100415.81;5075673;28;20033;-83
2022/05/04 08:05:53;;;;;;;;;;;;;;;10.05;91.21;100420.47;5077023;28;20499;-83
2022/05/04 08:08:19;;;;;;;10.48;4.10;;;;;;;10.22;89.05;100420.97;5058184;28;19908;-84
2022/05/04 08:10:44;;;;;;;11.50;4.40;;;;;;;10.37;89.12;100417.88;5075944;28;20024;-83
2022/05/04 08:13:09;;;;;;;11.65;4.55;;;;;;;10.26;86.76;100420.84;5075908;28;20488;-83
2022/05/04 08:15:36;;;;;;;15.13;4.85;;;;;;;10.25;84.34;100423.56;5075679;28;20025;-83
2022/05/04 08:18:02;;;;;;;18.60;4.75;;;;;;;10.24;87.43;100421.78;5076166;28;20081;-84
2022/05/04 08:20:29;;;;;;;10.25;4.15;;;;;;;10.30;84.94;100421.63;5078689;28;20024;-83
2022/05/04 08:22:54;;;;;;;15.00;4.50;;;;;;;10.06;84.40;100424.91;5075822;28;20444;-84
2022/05/04 08:25:19;;;;;;;17.52;4.80;;;;;;;10.15;86.26;100418.44;5057043;28;20093;-83
2022/05/04 08:27:45;;;;;;;14.10;4.82;;;;;;;10.15;86.01;100422.94;5074776;28;20094;-83
2022/05/04 08:30:10;;;;;;;13.23;4.63;;;;;;;10.43;91.22;100422.19;5075405;28;20082;-83
2022/05/04 08:32:36;;;;;;;16.00;4.97;;;;;;;10.27;85.70;100427.94;5057383;28;20062;-84
2022/05/04 08:35:01;;;;;;;9.70;4.45;;;;;;;10.06;88.54;100427.56;5074786;28;20029;-83
2022/05/04 08:37:27;;;;;;;11.32;4.97;;;;;;;10.10;86.15;100425.69;5057027;28;20107;-83
2022/05/04 08:39:53;;;;;;;11.80;4.40;;;;;;;10.24;86.77;100427.13;5057165;28;20017;-84
2022/05/04 08:42:19;;;;;;;13.43;4.53;;;;;;;10.39;89.64;100425.84;5075606;28;20051;-84
2022/05/04 08:44:47;;;;;;;15.23;4.57;;;;;;;10.55;86.93;100431.66;5058104;28;20489;-82
2022/05/04 08:47:15;;;;;;;12.90;4.28;;;;;;;10.75;87.21;100424.88;5076341;28;20033;-83
2022/05/04 08:49:41;;;;;;;11.55;4.50;;;;;;;10.69;85.32;100431.31;5057900;28;20012;-83
2022/05/04 08:52:07;;;;;;;12.77;5.00;;;;;;;11.02;85.72;100429.47;5059115;28;20036;-82
2022/05/04 08:54:33;;;;;;;9.80;4.25;;;;;;;10.87;84.91;100425.47;5075303;28;20025;-83
2022/05/04 08:56:59;;;;;;;13.70;4.78;;;;;;;10.98;85.20;100417.16;5076349;28;20016;-82
2022/05/04 08:59:25;;;;;;;13.10;4.43;;;;;;;11.21;84.35;100413.75;5057951;28;20033;-83
2022/05/04 09:01:51;;;;;;;11.23;4.75;;;;;;;11.56;88.16;100418.03;5075512;28;20040;-83
2022/05/04 09:04:16;;;;;;;16.50;4.53;;;;;;;11.41;81.03;100420.28;5075841;28;20031;-83
2022/05/04 09:06:45;;;;;;;12.30;3.97;;;;;;;11.28;81.86;100425.16;5075836;28;20587;-84
2022/05/04 09:09:11;;;;;;;10.63;4.47;;;;;;;11.53;89.28;100423.47;5076638;28;20037;-83
2022/05/04 09:11:38;;;;;;;12.48;4.90;;;;;;;11.88;87.81;100424.13;5077111;28;20027;-83
2022/05/04 09:14:08;;;;;;;13.57;4.45;;;;;;;11.65;79.97;100423.09;5077394;28;20470;-84
2022/05/04 09:16:33;;;;;;;13.25;4.93;;;;;;;11.98;83.43;100421.16;5076391;28;20052;-82
2022/05/04 09:19:04;;;;;;;11.95;3.95;;;;;;;12.27;80.87;100417.50;5076542;28;20019;-84
2022/05/04 09:21:30;;;;;;;10.15;4.15;;;;;;;12.36;80.41;100413.63;5077748;28;20074;-84
2022/05/04 09:24:02;;;;;;;13.80;4.82;;;;;;;11.94;77.68;100417.69;5080860;28;20028;-84
2022/05/04 09:26:28;;;;;;;12.80;4.47;;;;;;;12.57;83.67;100412.91;5077954;28;20516;-83
2022/05/04 09:29:01;;;;;;;11.68;4.35;;;;;;;12.82;78.65;100406.63;5059924;28;20032;-83
2022/05/04 09:31:28;;;;;;;11.40;4.53;;;;;;;13.19;80.44;100412.41;5079785;28;20028;-83
2022/05/04 09:34:02;;;;;;;12.30;4.93;;;;;;;12.72;73.65;100409.66;5060310;28;20029;-84
2022/05/04 09:44:54;;;;;;;11.55;4.25;;;;;;;12.39;75.58;100407.28;5076736;28;20105;-83
2022/05/04 09:45:16;;;;;;;13.85;4.60;;;;;;;12.99;73.81;100406.00;5075463;28;20452;-84
2022/05/04 09:47:45;;;;;;;12.88;5.15;;;;;;;13.06;73.31;100412.00;5056625;28;20119;-83
2022/05/04 09:50:12;;;;;;;12.13;4.55;;;;;;;12.52;79.51;100408.59;5075314;28;20020;-84
2022/05/04 09:52:44;;;;;;;10.13;4.25;;;;;;;13.30;73.35;100403.91;5075770;28;20354;-84
2022/05/04 09:55:19;;;;;;;14.07;5.10;;;;;;;12.61;74.66;100396.66;5073974;28;20032;-83
2022/05/04 09:57:46;;;;;;;12.55;4.88;;;;;;;12.96;71.97;100400.78;5074705;28;20044;-84
2022/05/04 10:00:13;;;;;;;11.38;4.63;;;;;;;13.23;72.16;100397.94;5074248;28;20111;-84
2022/05/04 10:02:39;;;;;;;12.07;4.85;;;;;;;13.12;71.17;100401.03;5075167;28;20107;-84
2022/05/04 10:05:07;;;;;;;14.18;4.72;;;;;;;13.29;73.82;100403.06;5076268;28;20028;-83
2022/05/04 10:07:35;;;;;;;13.35;4.70;;;;;;;13.58;71.85;100397.47;5041225;28;20081;-83
2022/05/04 10:10:01;;;;;;;11.18;5.22;;;;;;;13.88;70.27;100396.28;5058425;28;20483;-84
2022/05/04 10:12:27;;;;;;;14.68;4.88;;;;;;;14.15;73.16;100385.28;5074577;28;20036;-83
2022/05/04 10:14:54;;;;;;;12.00;4.70;;;;;;;13.80;70.21;100383.16;5073681;28;20016;-83
2022/05/04 10:17:23;;;;;;;15.07;4.40;;;;;;;14.56;72.28;100388.00;5073822;28;20042;-83
2022/05/04 10:19:55;;;;;;;9.50;4.40;;;;;;;14.39;69.85;100382.44;5074226;28;20028;-83
2022/05/04 10:22:27;;;;;;;14.82;4.63;;;;;;;15.28;71.05;100380.19;5074567;28;20531;-85
2022/05/04 10:24:56;;;;;;;9.80;4.50;;;;;;;15.41;69.31;100374.25;5073616;28;20028;-85
2022/05/04 10:27:23;;;;;;;14.88;4.90;;;;;;;15.01;66.01;100377.91;5073784;28;20063;-85
2022/05/04 10:33:02;;;;;;;12.27;5.25;;;;;;;15.13;69.59;100387.19;5073615;28;20504;-85
2022/05/04 10:35:31;;;;;;;11.48;4.32;;;;;;;15.81;68.14;100383.94;5073800;28;20052;-85
2022/05/04 10:38:00;;;;;;;8.80;4.40;;;;;;;15.80;65.34;100388.47;5073089;28;20119;-86
2022/05/04 10:40:27;;;;;;;11.93;5.18;;;;;;;16.05;65.63;100389.06;5055169;28;20543;-84
2022/05/04 10:43:11;;;;;;;13.43;4.72;;;;;;;16.03;67.47;100378.34;5055552;28;20036;-85
2022/05/04 10:45:38;;;;;;;12.50;4.90;;;;;;;16.18;63.37;100373.16;5073281;28;20389;-85
2022/05/04 10:48:09;;;;;;;14.45;5.22;;;;;;;16.28;67.21;100378.91;5073514;28;20099;-86
2022/05/04 10:50:57;;;;;;;11.60;4.90;;;;;;;16.28;64.49;100366.31;5074178;28;20024;-86
2022/05/04 10:53:25;;;;;;;12.65;5.30;;;;;;;15.49;62.64;100372.03;5077179;28;20034;-85
2022/05/04 10:56:03;;;;;;;12.27;5.20;;;;;;;15.15;64.72;100379.06;5058975;28;20031;-85
2022/05/04 10:58:43;;;;;;;10.00;5.10;;;;;;;15.48;63.96;100370.31;5076803;28;20028;-86
2022/05/04 11:01:12;;;;;;;9.55;4.88;;;;;;;16.14;63.51;100367.03;5076741;28;20059;-85
2022/05/04 11:03:49;;;;;;;9.13;5.60;;;;;;;15.98;63.23;100372.31;5077196;28;20027;-85
2022/05/04 11:06:25;;;;;;;10.35;5.50;;;;;;;16.03;63.56;100369.41;5077090;28;20016;-85
2022/05/04 11:08:52;;;;;;;12.75;5.50;;;;;;;16.47;66.07;100370.72;5076917;28;20024;-82
2022/05/04 11:11:20;;;;;;;10.40;5.80;;;;;;;15.80;62.89;100369.63;5059079;28;20073;-86
2022/05/04 11:13:45;;;;;;;14.57;6.50;;;;;;;15.72;63.49;100366.47;5076977;28;20021;-86
2022/05/04 11:16:12;;;;;;;14.85;6.07;;;;;;;15.97;61.75;100366.09;5079005;28;20020;-86
2022/05/04 11:18:38;;;;;;;12.32;6.15;;;;;;;16.63;65.15;100365.38;5076647;28;20032;-86
2022/05/04 11:21:09;;;;;;;12.20;5.60;;;;;;;16.38;61.24;100364.00;5076893;28;20024;-86
2022/05/04 11:23:37;;;;;;;12.70;6.57;;;;;;;15.29;64.43;100364.94;5076968;28;20394;-86
2022/05/04 11:26:02;;;;;;;13.75;6.13;;;;;;;14.78;65.21;100366.38;5076621;28;20032;-86
2022/05/04 11:28:27;;;;;;;11.35;6.00;;;;;;;14.63;66.42;100357.22;5076465;28;20021;-86
2022/05/04 11:30:53;;;;;;;16.63;6.40;;;;;;;14.61;66.49;100353.75;5058346;28;20389;-86
2022/05/04 11:33:19;;;;;;;11.68;6.13;;;;;;;15.69;71.48;100353.16;5076227;28;20028;-86
2022/05/04 11:35:50;;;;;;;14.93;6.20;;;;;;;16.05;65.26;100357.63;5076240;28;20040;-86
2022/05/04 11:38:18;;;;;;;13.40;5.72;;;;;;;15.85;63.27;100355.91;5076459;28;20028;-86
2022/05/04 11:40:45;;;;;;;10.75;5.55;;;;;;;16.48;62.43;100358.13;5076280;28;20024;-85
2022/05/04 11:43:27;;;;;;;15.07;6.40;;;;;;;16.45;63.23;100347.50;5058579;28;20115;-85
2022/05/04 11:45:53;;;;;;;13.35;6.60;;;;;;;15.83;61.02;100352.44;5058408;28;20078;-86
2022/05/04 11:48:18;;;;;;;13.25;5.85;;;;;;;15.88;62.51;100347.69;5076659;28;20554;-85
2022/05/04 11:50:44;;;;;;;15.23;6.20;;;;;;;16.24;64.64;100345.00;5076356;28;20031;-86